Antonio Cunha

Recruteur en chef - Casa Pia
23 Avr 2028
Dimanche
Processus

Personnalité

Adaptabilité (8) Ambition (18) Controverse (4) Loyauté (2) Pression (6) Professionnalisme (17) Sportivité (2) Tempérament (14)

Profil

Style d'entraînement Démocratique
Diplôme Continental C
Détermination 11
Gestion des joueurs 9
Motivation 4
Discipline 4
Satisfaction professionnelle
100%
Fatigue
0%
Rôle Recruteur en chef
Salaire 64.0K p/s
Contrat 14.03.2029

Performance

Comportement Bon
Efficacité de l'entraînement
33%
Développement des joueurs
40%
Prévention des blessures
30%
Mise en place tactique
30%

Événements récents

A participé à une réunion de recrutement maintenant
A participé à une réunion de recrutement maintenant
A participé à une réunion de recrutement maintenant
A participé à une réunion de recrutement maintenant
A recommandé une cible de transfert maintenant
A participé à une réunion de recrutement maintenant
A recommandé une cible de transfert maintenant
A recommandé une cible de transfert maintenant

Suivi en cours

175
Joueur Club Statut Capacité Confiance Observé Dernière observation Dernier vote
Salvador Blopá Sporting CP Refusé 119 / 136 67% 6 18.01.2028 Refuser
Josh Torquato FC Dallas Actif 100 / 95 40% 1 18.01.2028 -
Mao Hosoya Santos Négociation 134 / 135 67% 1 01.01.2028 Approuver
Iker Benito Casa Pia Actif 121 / 122 66% 1 01.01.2028 Approuver
Tobias Mohr Farense Actif 117 / 117 68% 1 01.01.2028 Approuver
Vinícius Lira São Paulo Actif 112 / 136 40% 2 18.12.2027 -
Matias Siltanen Malmo FF Actif 131 / 128 40% 1 14.12.2027 -
Luka Vušković Tottenham Actif 155 / 160 40% 1 14.12.2027 -
Hosea Michael Remo Stars Actif 100 / 98 40% 2 13.12.2027 -
Pablo Lúcio St. Gallen Actif 113 / 127 40% 1 13.12.2027 -
Trey Nyoni Rotherham United Actif 132 / 139 40% 1 12.12.2027 -
Óscar Hinojosa Metropolitanos Actif 69 / 73 40% 1 12.12.2027 -
Gideon Manaseh Ikorodu City Actif 107 / 81 40% 1 11.12.2027 -
Sebastián Ramírez Aguilas Doradas Actif 108 / 117 40% 1 11.12.2027 -
Agustín De la Cuesta Racing Actif 107 / 122 40% 2 10.12.2027 -
Christos Mouzakitis Hull City Actif 131 / 143 40% 1 10.12.2027 -
Ayden Heaven Portsmouth Actif 148 / 141 40% 2 09.12.2027 -
Victor Hernandez Santa Fe Actif 113 / 119 40% 1 09.12.2027 -
Chris Rigg Sunderland Actif 128 / 139 40% 1 07.12.2027 -
Ignacio Fernández Boston River Actif 103 / 97 40% 1 07.12.2027 -
Benedetti Palmeiras Actif 93 / 105 40% 1 01.09.2027 -
Eliás Montiel Borussia Dortmund Actif 127 / 151 40% 2 19.08.2027 -
Adam Boufandar Pro Vercelli Actif 92 / 89 40% 1 19.08.2027 -
Federico Matarán Giana Erminio Actif 107 / 112 40% 2 10.08.2027 -
Esteban de Lima Tacuarembo Actif 93 / 96 40% 1 10.08.2027 -
Simón Pinto Huachipato Actif 99 / 112 40% 1 19.07.2027 -
Moncef Zekri Sporting CP Actif 96 / 117 67% 2 28.06.2027 Observer
Jefry Zapata Aldosivi Négociation 118 / 118 66% 1 01.06.2027 Approuver
Francis Gomez Cardiff City Actif 118 / 109 40% 1 29.05.2027 -
Santiago Murillo Alianza Petrolera Actif 119 / 121 40% 2 28.05.2027 -
Riley Owen Stevenage Actif 93 / 108 40% 1 28.05.2027 -
Pedro Vian Seewald Dolomiti Bellunesi Actif 88 / 104 40% 1 27.05.2027 -
Josh Davidson Milton Keynes Dons Actif 82 / 85 40% 1 27.05.2027 -
Chari Giwa US Bougouni Actif 59 / 72 40% 3 26.05.2027 -
Tommaso Cecotti Carpi Actif 81 / 103 40% 1 26.05.2027 -
Lucas Bergvall Tottenham Actif 135 / 149 40% 5 25.05.2027 -
Bernardo Lima Porto Actif 89 / 101 40% 1 25.05.2027 -
Vanja Dragojević Partizan Actif 119 / 118 40% 1 24.05.2027 -
Rivaldo Mkhize Black Aces Actif 62 / 73 40% 1 24.05.2027 -
Jan Bürger Northampton Town Actif 103 / 107 40% 2 23.05.2027 -
Tiago Freitas Benfica Actif 116 / 110 40% 2 22.05.2027 -
Finn Jeltsch VfB Stuttgart Actif 131 / 150 40% 1 22.05.2027 -
Leandro Martins Benfica Actif 105 / 105 40% 2 21.05.2027 -
João Teixeira Porto Actif 110 / 105 40% 2 14.05.2027 -
Josh Acheampong Everton Actif 145 / 149 40% 1 14.05.2027 -
Matvey Kislyak CSKA Moscow Actif 114 / 146 40% 1 12.05.2027 -
Josh King Newcastle United Actif 136 / 141 40% 1 12.05.2027 -
Olivier Leroux Mouscron Actif 85 / 104 40% 2 11.05.2027 -
Sascha Britschgi AC Milan Actif 128 / 129 40% 1 11.05.2027 -
Caleb Yirenkyi Coventry City Actif 138 / 138 40% 3 10.05.2027 -
Henrique Silva Santa Clara Actif 103 / 109 40% 1 10.05.2027 -
Gonçalo Oliveira Benfica Actif 117 / 102 40% 1 09.05.2027 -
Gady Beyuku Blackburn Rovers Actif 114 / 120 40% 1 04.05.2027 -
Mattia Puzone Siracusa Actif 106 / 96 40% 1 29.04.2027 -
Pape Diong Westerlo Actif 125 / 123 40% 2 27.04.2027 -
Afriyie Sulemana WAFA Actif 72 / 85 40% 2 25.04.2027 -
Jenson Jones Walsall Actif 106 / 109 40% 1 25.04.2027 -
Germán Barbas Burgos Actif 106 / 105 40% 1 22.04.2027 -
Charlie Gray Fleetwood Town Actif 92 / 87 40% 1 21.04.2027 -
Mpho Khethang FC Diarra Actif 84 / 73 40% 1 19.04.2027 -
Ivan Giraldo Valencia Actif 106 / 136 40% 1 10.04.2027 -
Kiani Inge Groningen Actif 113 / 122 40% 1 06.04.2027 -
Martim Cunha Porto Actif 85 / 94 40% 1 05.04.2027 -
Aidan Morris Middlesbrough Actif 139 / 130 40% 1 06.03.2027 -
Valery Académico de Viseu Actif 137 / 108 40% 1 06.03.2027 -
Bongani Jali Free State Stars Actif 82 / 96 40% 1 05.03.2027 -
Ezra Mayers West Ham United Actif 122 / 118 40% 1 03.03.2027 -
Ethan Pye Stockport County Actif 108 / 115 40% 1 02.03.2027 -
Raoul Bellanova Atalanta Actif 137 / 139 40% 1 28.02.2027 -
Jacob Greaves Ipswich Town Actif 124 / 144 40% 1 27.02.2027 -
Ryan Sessegnon Fulham Actif 145 / 137 40% 1 24.02.2027 -
Adrien Truffert Bournemouth Actif 137 / 145 40% 2 23.02.2027 -
Jonathan Varane Queens Park Rangers Actif 113 / 116 40% 2 22.02.2027 -
Welington Southampton Actif 127 / 138 40% 1 22.02.2027 -
Max Johnston Derby County Actif 138 / 127 40% 1 19.02.2027 -
Alfie Doughty Millwall Actif 118 / 119 40% 1 19.02.2027 -
Habib Diarra Sunderland Actif 134 / 148 40% 2 18.02.2027 -
Alex Scott Bournemouth Actif 136 / 153 40% 1 18.02.2027 -
Cheick Oumar Souaré Viktoria Plzen Actif 112 / 121 40% 1 16.02.2027 -
Noah Sadiki Sunderland Actif 135 / 154 40% 2 15.02.2027 -
Enrico Delprato Parma Actif 142 / 148 40% 1 15.02.2027 -
Ricard Sánchez Estoril Praia Actif 138 / 125 40% 1 14.02.2027 -
Juanlu Bournemouth Actif 158 / 160 40% 2 10.02.2027 -
MT Santa Clara Actif 107 / 111 40% 1 10.02.2027 -
Yaimar Medina Racing Genk Actif 118 / 116 40% 1 07.02.2027 -
Gabriel Gudmundsson Leeds United Actif 134 / 141 40% 1 06.02.2027 -
Bosun Lawal Stoke City Actif 131 / 119 40% 1 05.02.2027 -
Dara O'Shea Ipswich Town Actif 151 / 128 40% 1 02.02.2027 -
Alejandro Gómez Tijuana Actif 109 / 130 40% 1 01.02.2027 -
Carlos Jimenez Veracruz Actif 108 / 107 40% 1 01.02.2027 -
Sampson Dweh Mallorca Actif 133 / 134 66% 1 01.01.2027 Approuver
Lorougnon Gohi Académico de Viseu Actif 116 / 117 40% 2 29.12.2026 -
Simo Maritimo Actif 125 / 110 40% 1 29.12.2026 -
Rodrigo López Pumas UNAM Actif 118 / 109 40% 1 28.12.2026 -
Tyler Adams Bournemouth Actif 145 / 162 40% 3 27.12.2026 -
Carlos Vicente Birmingham Actif 134 / 148 40% 5 26.12.2026 -
Erik Lira Cruz Azul Actif 146 / 130 40% 1 25.12.2026 -
Juan Bezerra Zamalek Actif 136 / 108 40% 1 25.12.2026 -
Itumeleng Hlatshwayo SuperSport United Actif 80 / 103 40% 1 24.12.2026 -
Matías Contrera Hrvatski Dragovoljac Actif 87 / 100 40% 2 23.12.2026 -
Ethan Galbraith Swansea City Actif 135 / 123 40% 1 21.12.2026 -
Sorriso Famalicao Actif 141 / 134 40% 2 20.12.2026 -
Jalal Abdullai Molde Actif 100 / 123 40% 2 17.12.2026 -
Miloš Jovičić Zabbar St. Patrick Actif 79 / 98 40% 1 16.12.2026 -
Omar Campos Cruz Azul Actif 126 / 127 40% 2 14.12.2026 -
Martín Tejón Maritimo Actif 109 / 131 40% 1 13.12.2026 -
John Mercado Sparta Prague Actif 114 / 103 40% 1 13.12.2026 Plus d'infos
Ousseynou Seck Randers Actif 115 / 129 40% 4 12.12.2026 -
Joel Orlando Almagro Actif 122 / 109 40% 1 12.12.2026 -
Ole Pohlmann Rio Ave Actif 132 / 109 40% 1 09.12.2026 -
William Gomes Porto Actif 129 / 140 40% 1 09.12.2026 -
Gonzalo Fulham Actif 136 / 149 40% 3 08.12.2026 -
Ezequiel Bullaude Santos Laguna Actif 139 / 111 40% 1 03.12.2026 -
Noni Madueke Arsenal Actif 165 / 163 40% 1 03.12.2026 -
Tristan Degreef Anderlecht Actif 132 / 134 40% 1 30.11.2026 -
Mario Dorgeles Braga Actif 127 / 136 40% 1 27.11.2026 -
Assane Diao Como Actif 158 / 135 40% 4 26.11.2026 -
Tariq Lamptey Queens Park Rangers Actif 137 / 137 40% 1 26.11.2026 -
Nico O'Reilly Manchester City Actif 143 / 149 40% 1 26.11.2026 -
Lee Hyun-Ju Arouca Actif 120 / 124 40% 1 26.11.2026 -
Markus Jensen Nacional Actif 90 / 114 40% 2 23.11.2026 -
Reda Khadra Qarabag Actif 124 / 146 40% 2 22.11.2026 -
Oswin Appollis Orlando Pirates Actif 124 / 126 40% 1 19.11.2026 -
Pedro Porro Tottenham Actif 149 / 147 40% 1 18.11.2026 -
Peter Valjent FK Senica Actif 119 / 138 40% 1 18.11.2026 -
Manu Pozo Torreense Actif 112 / 130 40% 1 16.11.2026 -
Mateus Mané Burnley Actif 129 / 138 40% 1 16.11.2026 -
Roberto Fernández Braga Actif 154 / 137 40% 5 14.11.2026 Observer
Santiago Montiel Independiente Actif 135 / 113 40% 1 12.11.2026 -
Bongani Zungu Ajax Cape Town Actif 104 / 142 40% 1 11.11.2026 -
Pau Víctor Braga Actif 155 / 134 40% 5 09.11.2026 -
Bogdan Petrović TSC Actif 101 / 96 40% 1 06.11.2026 -
Ilyas Ansah Hull City Actif 116 / 135 40% 1 04.11.2026 -
Martín Ojeda Orlando City Actif 148 / 140 40% 1 03.11.2026 -
Carlos Álvarez Club America Actif 154 / 136 40% 1 02.11.2026 -
Juan Bisanz Huracán Actif 116 / 132 40% 2 01.11.2026 -
Alex Robertson Cardiff City Actif 107 / 110 40% 1 01.11.2026 -
Xavi Simons Tottenham Actif 154 / 164 40% 2 31.10.2026 -
Savinho Tottenham Actif 162 / 165 40% 1 31.10.2026 -
Abraham Marcus Estrela da Amadora Actif 136 / 115 40% 1 29.10.2026 -
Alfonso Trezza Arouca Actif 138 / 122 40% 1 29.10.2026 -
Jorge Jimenez Veracruz Actif 86 / 111 40% 1 29.10.2026 -
Mathys Tel Tottenham Actif 135 / 157 40% 2 26.10.2026 -
Alexsander Atlético Mineiro Actif 135 / 126 40% 1 26.10.2026 -
Rayan Kolli Queens Park Rangers Actif 111 / 105 40% 1 26.10.2026 -
Adrián Sánchez Belgrano Actif 109 / 135 40% 1 24.10.2026 -
Amine Adli Bournemouth Actif 149 / 153 40% 1 23.10.2026 -
Diego Lainez Tigres Actif 136 / 136 40% 1 22.10.2026 -
Kevin Fulham Actif 149 / 150 40% 1 21.10.2026 -
Isaiah Jones Luton Town Actif 119 / 131 40% 1 21.10.2026 -
Tyrhys Dolan Espanyol Actif 133 / 127 40% 1 20.10.2026 -
Iván Angulo Orlando City Actif 128 / 114 40% 1 16.10.2026 -
Marcelo Allende Mamelodi Sundowns Actif 122 / 139 40% 1 16.10.2026 -
Jonás Luna Wanderers Actif 100 / 124 40% 1 15.10.2026 -
Jaminton Campaz Rosario Central Actif 132 / 125 40% 2 08.10.2026 -
Junior Hernández Deportes Tolima Actif 104 / 124 40% 1 08.10.2026 -
Mateja Stjepanović Moreirense Actif 108 / 132 40% 1 08.10.2026 -
Jesus Ferreira Seattle Sounders Actif 133 / 128 40% 1 23.09.2026 -
Derensili Sanches Fernandes Huddersfield Town Actif 136 / 119 40% 1 22.09.2026 -
Santiago Rodríguez Columbus Crew Actif 124 / 131 40% 1 22.09.2026 -
Santi García Gil Vicente Actif 146 / 138 40% 1 19.09.2026 -
Víctor Gómez Braga Actif 131 / 148 40% 1 18.09.2026 Plus d'infos
Alex Luna Instituto Actif 121 / 123 40% 1 17.09.2026 -
Jacques Ekomié Wrexham Actif 128 / 130 40% 1 17.09.2026 -
Bruno Larregui Juventud Actif 128 / 128 40% 1 16.09.2026 -
Enzo Le Fée Sunderland Actif 146 / 130 40% 1 15.09.2026 -
Diego Gómez Brighton Actif 132 / 133 40% 1 13.09.2026 -
Joaquín Gho Argentinos Juniors Actif 113 / 134 40% 1 11.09.2026 -
Julián Palacios Unión de Santa Fe Actif 129 / 113 40% 1 10.09.2026 -
César Ibáñez Huracán Actif 116 / 113 40% 1 10.09.2026 -
Toni Tamarit Alverca Actif 102 / 131 40% 1 24.08.2026 -
Ariath Piol Real Salt Lake Actif 90 / 87 40% 1 18.08.2026 -
Mbekezeli Mbokazi Chicago Fire Actif 128 / 118 40% 1 10.08.2026 -
Samuel Atlético Mineiro Actif 96 / 94 40% 1 10.08.2026 -
Luis Quintero Torreense Actif 112 / 113 44% 1 03.08.2026 -